sensor_id;sensor_type;location;lat;lon;timestamp;P1;durP1;ratioP1;P2;durP2;ratioP2
67804;SDS011;54603;45.638;11.714;2023-03-14T00:01:08;13.00;;;6.70;;
67804;SDS011;54603;45.638;11.714;2023-03-14T00:03:37;11.30;;;6.80;;
67804;SDS011;54603;45.638;11.714;2023-03-14T00:06:04;9.30;;;6.70;;
67804;SDS011;54603;45.638;11.714;2023-03-14T00:08:30;9.70;;;6.80;;
67804;SDS011;54603;45.638;11.714;2023-03-14T00:10:55;8.90;;;6.40;;
67804;SDS011;54603;45.638;11.714;2023-03-14T00:13:23;9.70;;;6.70;;
67804;SDS011;54603;45.638;11.714;2023-03-14T00:15:49;9.80;;;6.90;;
67804;SDS011;54603;45.638;11.714;2023-03-14T00:18:14;8.60;;;6.30;;
67804;SDS011;54603;45.638;11.714;2023-03-14T00:20:40;9.10;;;6.30;;
67804;SDS011;54603;45.638;11.714;2023-03-14T00:23:06;9.50;;;6.70;;
67804;SDS011;54603;45.638;11.714;2023-03-14T00:25:32;8.00;;;6.50;;
67804;SDS011;54603;45.638;11.714;2023-03-14T00:27:57;10.30;;;7.30;;
67804;SDS011;54603;45.638;11.714;2023-03-14T00:30:23;8.50;;;6.50;;
67804;SDS011;54603;45.638;11.714;2023-03-14T00:32:48;9.30;;;6.70;;
67804;SDS011;54603;45.638;11.714;2023-03-14T00:35:14;9.70;;;6.70;;
67804;SDS011;54603;45.638;11.714;2023-03-14T00:37:40;9.10;;;6.60;;
67804;SDS011;54603;45.638;11.714;2023-03-14T00:40:06;11.00;;;7.10;;
67804;SDS011;54603;45.638;11.714;2023-03-14T00:42:33;9.30;;;7.10;;
67804;SDS011;54603;45.638;11.714;2023-03-14T00:44:58;10.10;;;7.10;;
67804;SDS011;54603;45.638;11.714;2023-03-14T00:47:24;9.50;;;7.40;;
67804;SDS011;54603;45.638;11.714;2023-03-14T00:49:49;7.80;;;6.20;;
67804;SDS011;54603;45.638;11.714;2023-03-14T00:52:15;8.60;;;6.30;;
67804;SDS011;54603;45.638;11.714;2023-03-14T00:54:40;8.70;;;6.70;;
67804;SDS011;54603;45.638;11.714;2023-03-14T00:57:06;10.10;;;6.50;;
67804;SDS011;54603;45.638;11.714;2023-03-14T00:59:32;11.60;;;6.60;;
67804;SDS011;54603;45.638;11.714;2023-03-14T01:01:57;7.40;;;6.40;;
67804;SDS011;54603;45.638;11.714;2023-03-14T01:04:23;10.50;;;7.10;;
67804;SDS011;54603;45.638;11.714;2023-03-14T01:06:48;9.60;;;6.70;;
67804;SDS011;54603;45.638;11.714;2023-03-14T01:09:14;8.80;;;6.50;;
67804;SDS011;54603;45.638;11.714;2023-03-14T01:11:41;9.80;;;6.70;;
67804;SDS011;54603;45.638;11.714;2023-03-14T01:14:08;9.60;;;6.30;;
67804;SDS011;54603;45.638;11.714;2023-03-14T01:16:34;9.50;;;6.60;;
67804;SDS011;54603;45.638;11.714;2023-03-14T01:19:00;10.70;;;7.00;;
67804;SDS011;54603;45.638;11.714;2023-03-14T01:21:27;9.40;;;6.20;;
67804;SDS011;54603;45.638;11.714;2023-03-14T01:23:55;9.90;;;6.50;;
67804;SDS011;54603;45.638;11.714;2023-03-14T01:26:22;8.90;;;6.70;;
67804;SDS011;54603;45.638;11.714;2023-03-14T01:28:49;9.00;;;6.30;;
67804;SDS011;54603;45.638;11.714;2023-03-14T01:31:17;9.10;;;6.50;;
67804;SDS011;54603;45.638;11.714;2023-03-14T01:33:42;7.50;;;6.30;;
67804;SDS011;54603;45.638;11.714;2023-03-14T01:36:08;8.00;;;6.70;;
67804;SDS011;54603;45.638;11.714;2023-03-14T01:38:35;9.00;;;6.80;;
67804;SDS011;54603;45.638;11.714;2023-03-14T01:41:02;8.40;;;6.60;;
67804;SDS011;54603;45.638;11.714;2023-03-14T01:43:28;10.50;;;6.70;;
67804;SDS011;54603;45.638;11.714;2023-03-14T01:48:31;8.80;;;6.30;;
67804;SDS011;54603;45.638;11.714;2023-03-14T01:51:00;9.20;;;6.40;;
67804;SDS011;54603;45.638;11.714;2023-03-14T01:53:27;8.70;;;6.40;;
67804;SDS011;54603;45.638;11.714;2023-03-14T01:55:53;9.70;;;6.90;;
67804;SDS011;54603;45.638;11.714;2023-03-14T01:58:21;9.10;;;6.60;;
67804;SDS011;54603;45.638;11.714;2023-03-14T02:00:48;8.70;;;6.20;;
67804;SDS011;54603;45.638;11.714;2023-03-14T02:03:15;9.10;;;6.80;;
67804;SDS011;54603;45.638;11.714;2023-03-14T02:05:42;8.00;;;6.20;;
67804;SDS011;54603;45.638;11.714;2023-03-14T02:08:10;8.80;;;6.50;;
67804;SDS011;54603;45.638;11.714;2023-03-14T02:10:38;8.40;;;6.20;;
67804;SDS011;54603;45.638;11.714;2023-03-14T02:13:06;8.10;;;6.20;;
67804;SDS011;54603;45.638;11.714;2023-03-14T02:15:32;9.90;;;6.30;;
67804;SDS011;54603;45.638;11.714;2023-03-14T02:17:57;9.10;;;6.00;;
67804;SDS011;54603;45.638;11.714;2023-03-14T02:22:52;8.10;;;6.10;;
67804;SDS011;54603;45.638;11.714;2023-03-14T02:27:53;8.30;;;5.90;;
67804;SDS011;54603;45.638;11.714;2023-03-14T02:30:20;9.30;;;6.00;;
67804;SDS011;54603;45.638;11.714;2023-03-14T02:32:48;7.50;;;6.20;;
67804;SDS011;54603;45.638;11.714;2023-03-14T02:35:25;8.60;;;6.10;;
67804;SDS011;54603;45.638;11.714;2023-03-14T02:37:55;7.00;;;5.90;;
67804;SDS011;54603;45.638;11.714;2023-03-14T02:40:24;7.90;;;6.10;;
67804;SDS011;54603;45.638;11.714;2023-03-14T02:42:50;9.50;;;6.40;;
67804;SDS011;54603;45.638;11.714;2023-03-14T02:47:46;10.00;;;5.80;;
67804;SDS011;54603;45.638;11.714;2023-03-14T02:50:18;7.20;;;6.00;;
67804;SDS011;54603;45.638;11.714;2023-03-14T02:52:46;7.40;;;6.10;;
67804;SDS011;54603;45.638;11.714;2023-03-14T02:55:11;8.70;;;6.10;;
67804;SDS011;54603;45.638;11.714;2023-03-14T02:57:37;9.60;;;6.30;;
67804;SDS011;54603;45.638;11.714;2023-03-14T03:00:03;6.90;;;5.70;;
67804;SDS011;54603;45.638;11.714;2023-03-14T03:02:30;8.40;;;6.10;;
67804;SDS011;54603;45.638;11.714;2023-03-14T03:04:56;8.90;;;6.20;;
67804;SDS011;54603;45.638;11.714;2023-03-14T03:07:21;7.40;;;6.00;;
67804;SDS011;54603;45.638;11.714;2023-03-14T03:09:47;8.70;;;5.90;;
67804;SDS011;54603;45.638;11.714;2023-03-14T03:12:13;7.40;;;5.60;;
67804;SDS011;54603;45.638;11.714;2023-03-14T03:14:38;8.00;;;6.20;;
67804;SDS011;54603;45.638;11.714;2023-03-14T03:17:04;8.40;;;6.20;;
67804;SDS011;54603;45.638;11.714;2023-03-14T03:19:30;6.30;;;5.20;;
67804;SDS011;54603;45.638;11.714;2023-03-14T03:21:56;10.90;;;6.20;;
67804;SDS011;54603;45.638;11.714;2023-03-14T03:24:22;7.50;;;5.80;;
67804;SDS011;54603;45.638;11.714;2023-03-14T03:26:48;6.70;;;5.70;;
67804;SDS011;54603;45.638;11.714;2023-03-14T03:29:14;6.20;;;4.90;;
67804;SDS011;54603;45.638;11.714;2023-03-14T03:31:40;7.20;;;5.50;;
67804;SDS011;54603;45.638;11.714;2023-03-14T03:34:05;7.30;;;5.80;;
67804;SDS011;54603;45.638;11.714;2023-03-14T03:36:31;7.20;;;5.40;;
67804;SDS011;54603;45.638;11.714;2023-03-14T03:38:57;8.30;;;5.70;;
67804;SDS011;54603;45.638;11.714;2023-03-14T03:41:22;7.20;;;5.70;;
67804;SDS011;54603;45.638;11.714;2023-03-14T03:43:48;8.30;;;5.90;;
67804;SDS011;54603;45.638;11.714;2023-03-14T03:46:14;7.80;;;5.40;;
67804;SDS011;54603;45.638;11.714;2023-03-14T03:48:39;8.20;;;5.70;;
67804;SDS011;54603;45.638;11.714;2023-03-14T03:51:05;6.30;;;5.10;;
67804;SDS011;54603;45.638;11.714;2023-03-14T03:53:31;7.60;;;5.90;;
67804;SDS011;54603;45.638;11.714;2023-03-14T03:55:57;6.50;;;5.50;;
67804;SDS011;54603;45.638;11.714;2023-03-14T03:58:22;6.90;;;5.30;;
67804;SDS011;54603;45.638;11.714;2023-03-14T04:00:48;6.00;;;5.10;;
67804;SDS011;54603;45.638;11.714;2023-03-14T04:03:13;6.90;;;5.40;;
67804;SDS011;54603;45.638;11.714;2023-03-14T04:05:39;7.30;;;5.40;;
67804;SDS011;54603;45.638;11.714;2023-03-14T04:08:05;7.20;;;5.40;;
67804;SDS011;54603;45.638;11.714;2023-03-14T04:10:33;6.00;;;5.30;;
67804;SDS011;54603;45.638;11.714;2023-03-14T04:12:59;6.40;;;5.10;;
67804;SDS011;54603;45.638;11.714;2023-03-14T04:15:25;6.50;;;5.40;;
67804;SDS011;54603;45.638;11.714;2023-03-14T04:17:50;7.40;;;5.40;;
67804;SDS011;54603;45.638;11.714;2023-03-14T04:20:16;6.20;;;5.10;;
67804;SDS011;54603;45.638;11.714;2023-03-14T04:22:42;9.60;;;5.40;;
67804;SDS011;54603;45.638;11.714;2023-03-14T04:25:08;6.80;;;4.70;;
67804;SDS011;54603;45.638;11.714;2023-03-14T04:27:34;5.20;;;4.70;;
67804;SDS011;54603;45.638;11.714;2023-03-14T04:29:59;6.90;;;4.90;;
67804;SDS011;54603;45.638;11.714;2023-03-14T04:32:25;6.60;;;5.00;;
67804;SDS011;54603;45.638;11.714;2023-03-14T04:34:51;6.90;;;4.60;;
67804;SDS011;54603;45.638;11.714;2023-03-14T04:37:17;5.90;;;4.90;;
67804;SDS011;54603;45.638;11.714;2023-03-14T04:39:43;7.10;;;4.90;;
67804;SDS011;54603;45.638;11.714;2023-03-14T04:42:09;6.40;;;5.00;;
67804;SDS011;54603;45.638;11.714;2023-03-14T04:44:34;7.10;;;5.20;;
67804;SDS011;54603;45.638;11.714;2023-03-14T04:47:00;5.70;;;4.90;;
67804;SDS011;54603;45.638;11.714;2023-03-14T04:49:25;5.00;;;4.50;;
67804;SDS011;54603;45.638;11.714;2023-03-14T04:51:51;6.00;;;4.90;;
67804;SDS011;54603;45.638;11.714;2023-03-14T04:54:17;6.90;;;5.30;;
67804;SDS011;54603;45.638;11.714;2023-03-14T04:56:42;6.40;;;5.00;;
67804;SDS011;54603;45.638;11.714;2023-03-14T04:59:08;6.00;;;4.80;;
67804;SDS011;54603;45.638;11.714;2023-03-14T05:01:34;6.40;;;5.00;;
67804;SDS011;54603;45.638;11.714;2023-03-14T05:04:00;5.90;;;4.60;;
67804;SDS011;54603;45.638;11.714;2023-03-14T05:06:25;7.00;;;4.80;;
67804;SDS011;54603;45.638;11.714;2023-03-14T05:08:51;5.80;;;4.70;;
67804;SDS011;54603;45.638;11.714;2023-03-14T05:11:16;5.60;;;4.70;;
67804;SDS011;54603;45.638;11.714;2023-03-14T05:13:43;5.90;;;4.60;;
67804;SDS011;54603;45.638;11.714;2023-03-14T05:16:09;5.20;;;4.60;;
67804;SDS011;54603;45.638;11.714;2023-03-14T05:18:35;4.80;;;4.20;;
67804;SDS011;54603;45.638;11.714;2023-03-14T05:21:02;6.30;;;4.80;;
67804;SDS011;54603;45.638;11.714;2023-03-14T05:23:28;5.70;;;4.20;;
67804;SDS011;54603;45.638;11.714;2023-03-14T05:25:54;6.40;;;4.80;;
67804;SDS011;54603;45.638;11.714;2023-03-14T05:28:19;5.30;;;4.40;;
67804;SDS011;54603;45.638;11.714;2023-03-14T05:30:45;5.20;;;4.20;;
67804;SDS011;54603;45.638;11.714;2023-03-14T05:33:11;4.90;;;4.10;;
67804;SDS011;54603;45.638;11.714;2023-03-14T05:35:37;7.90;;;4.50;;
67804;SDS011;54603;45.638;11.714;2023-03-14T05:38:02;4.90;;;4.00;;
67804;SDS011;54603;45.638;11.714;2023-03-14T05:40:28;5.50;;;4.50;;
67804;SDS011;54603;45.638;11.714;2023-03-14T05:42:54;5.00;;;4.20;;
67804;SDS011;54603;45.638;11.714;2023-03-14T05:45:19;5.90;;;4.40;;
67804;SDS011;54603;45.638;11.714;2023-03-14T05:47:45;6.70;;;4.10;;
67804;SDS011;54603;45.638;11.714;2023-03-14T05:50:10;6.20;;;4.50;;
67804;SDS011;54603;45.638;11.714;2023-03-14T05:52:36;4.40;;;3.90;;
67804;SDS011;54603;45.638;11.714;2023-03-14T05:55:02;6.40;;;4.30;;
67804;SDS011;54603;45.638;11.714;2023-03-14T05:57:28;5.60;;;4.70;;
67804;SDS011;54603;45.638;11.714;2023-03-14T05:59:53;5.20;;;4.40;;
67804;SDS011;54603;45.638;11.714;2023-03-14T06:02:19;5.20;;;3.90;;
67804;SDS011;54603;45.638;11.714;2023-03-14T06:04:44;7.20;;;4.20;;
67804;SDS011;54603;45.638;11.714;2023-03-14T06:07:10;7.20;;;4.30;;
67804;SDS011;54603;45.638;11.714;2023-03-14T06:09:36;6.60;;;4.30;;
67804;SDS011;54603;45.638;11.714;2023-03-14T06:12:01;6.70;;;4.10;;
67804;SDS011;54603;45.638;11.714;2023-03-14T06:14:27;5.10;;;4.10;;
67804;SDS011;54603;45.638;11.714;2023-03-14T06:16:52;4.60;;;4.10;;
67804;SDS011;54603;45.638;11.714;2023-03-14T06:19:18;5.80;;;4.00;;
67804;SDS011;54603;45.638;11.714;2023-03-14T06:21:44;5.20;;;4.10;;
67804;SDS011;54603;45.638;11.714;2023-03-14T06:24:10;4.60;;;3.80;;
67804;SDS011;54603;45.638;11.714;2023-03-14T06:26:35;5.50;;;4.10;;
67804;SDS011;54603;45.638;11.714;2023-03-14T06:29:01;6.00;;;4.10;;
67804;SDS011;54603;45.638;11.714;2023-03-14T06:31:31;5.10;;;3.80;;
67804;SDS011;54603;45.638;11.714;2023-03-14T06:33:57;5.00;;;3.80;;
67804;SDS011;54603;45.638;11.714;2023-03-14T06:36:23;5.90;;;4.10;;
67804;SDS011;54603;45.638;11.714;2023-03-14T06:38:49;4.60;;;4.00;;
67804;SDS011;54603;45.638;11.714;2023-03-14T06:41:15;4.60;;;3.70;;
67804;SDS011;54603;45.638;11.714;2023-03-14T06:43:41;6.70;;;4.00;;
67804;SDS011;54603;45.638;11.714;2023-03-14T06:46:07;8.90;;;4.50;;
67804;SDS011;54603;45.638;11.714;2023-03-14T06:48:33;5.40;;;3.90;;
67804;SDS011;54603;45.638;11.714;2023-03-14T06:51:01;5.00;;;3.90;;
67804;SDS011;54603;45.638;11.714;2023-03-14T06:53:30;5.60;;;3.80;;
67804;SDS011;54603;45.638;11.714;2023-03-14T06:55:57;5.20;;;4.10;;
67804;SDS011;54603;45.638;11.714;2023-03-14T06:58:26;6.20;;;4.10;;
67804;SDS011;54603;45.638;11.714;2023-03-14T07:00:52;6.10;;;3.90;;
67804;SDS011;54603;45.638;11.714;2023-03-14T07:03:18;4.90;;;3.90;;
67804;SDS011;54603;45.638;11.714;2023-03-14T07:05:44;5.50;;;4.30;;
67804;SDS011;54603;45.638;11.714;2023-03-14T07:08:11;4.10;;;3.70;;
67804;SDS011;54603;45.638;11.714;2023-03-14T07:10:38;7.00;;;4.00;;
67804;SDS011;54603;45.638;11.714;2023-03-14T07:13:11;8.30;;;4.10;;
67804;SDS011;54603;45.638;11.714;2023-03-14T07:15:37;4.60;;;3.90;;
67804;SDS011;54603;45.638;11.714;2023-03-14T07:18:02;7.00;;;4.40;;
67804;SDS011;54603;45.638;11.714;2023-03-14T07:20:28;6.50;;;4.10;;
67804;SDS011;54603;45.638;11.714;2023-03-14T07:22:54;5.70;;;4.10;;
67804;SDS011;54603;45.638;11.714;2023-03-14T07:25:20;9.80;;;4.30;;
67804;SDS011;54603;45.638;11.714;2023-03-14T07:27:46;6.50;;;4.00;;
67804;SDS011;54603;45.638;11.714;2023-03-14T07:30:13;8.10;;;4.20;;
67804;SDS011;54603;45.638;11.714;2023-03-14T07:32:39;5.00;;;3.70;;
67804;SDS011;54603;45.638;11.714;2023-03-14T07:35:05;6.30;;;4.10;;
67804;SDS011;54603;45.638;11.714;2023-03-14T07:37:31;10.00;;;4.20;;
67804;SDS011;54603;45.638;11.714;2023-03-14T07:39:57;10.40;;;4.40;;
67804;SDS011;54603;45.638;11.714;2023-03-14T07:42:22;6.50;;;4.50;;
67804;SDS011;54603;45.638;11.714;2023-03-14T07:44:48;8.60;;;4.00;;
67804;SDS011;54603;45.638;11.714;2023-03-14T07:47:14;6.00;;;3.70;;
67804;SDS011;54603;45.638;11.714;2023-03-14T07:49:39;6.60;;;4.00;;
67804;SDS011;54603;45.638;11.714;2023-03-14T07:52:05;6.50;;;3.80;;
67804;SDS011;54603;45.638;11.714;2023-03-14T07:54:30;7.90;;;3.50;;
67804;SDS011;54603;45.638;11.714;2023-03-14T07:56:56;5.90;;;3.60;;
67804;SDS011;54603;45.638;11.714;2023-03-14T07:59:26;6.20;;;3.70;;
67804;SDS011;54603;45.638;11.714;2023-03-14T08:01:52;6.80;;;3.70;;
67804;SDS011;54603;45.638;11.714;2023-03-14T08:04:18;6.80;;;3.90;;
67804;SDS011;54603;45.638;11.714;2023-03-14T08:06:43;5.80;;;3.50;;
67804;SDS011;54603;45.638;11.714;2023-03-14T08:09:09;8.60;;;3.70;;
67804;SDS011;54603;45.638;11.714;2023-03-14T08:11:35;7.60;;;3.70;;
67804;SDS011;54603;45.638;11.714;2023-03-14T08:14:01;5.80;;;3.70;;
67804;SDS011;54603;45.638;11.714;2023-03-14T08:16:27;6.40;;;3.50;;
67804;SDS011;54603;45.638;11.714;2023-03-14T08:18:52;7.20;;;3.50;;
67804;SDS011;54603;45.638;11.714;2023-03-14T08:21:18;7.10;;;3.30;;
67804;SDS011;54603;45.638;11.714;2023-03-14T08:23:43;6.00;;;3.30;;
67804;SDS011;54603;45.638;11.714;2023-03-14T08:26:09;6.40;;;3.60;;
67804;SDS011;54603;45.638;11.714;2023-03-14T08:28:34;4.50;;;3.20;;
67804;SDS011;54603;45.638;11.714;2023-03-14T08:31:00;7.00;;;3.50;;
67804;SDS011;54603;45.638;11.714;2023-03-14T08:33:27;6.80;;;3.70;;
67804;SDS011;54603;45.638;11.714;2023-03-14T08:35:57;5.60;;;3.50;;
67804;SDS011;54603;45.638;11.714;2023-03-14T08:38:24;4.80;;;3.40;;
67804;SDS011;54603;45.638;11.714;2023-03-14T08:40:54;4.40;;;3.10;;
67804;SDS011;54603;45.638;11.714;2023-03-14T08:43:21;4.90;;;3.30;;
67804;SDS011;54603;45.638;11.714;2023-03-14T08:45:47;5.90;;;3.20;;
67804;SDS011;54603;45.638;11.714;2023-03-14T08:48:12;7.30;;;3.40;;
67804;SDS011;54603;45.638;11.714;2023-03-14T08:50:38;7.70;;;3.20;;
67804;SDS011;54603;45.638;11.714;2023-03-14T08:53:03;5.10;;;3.40;;
67804;SDS011;54603;45.638;11.714;2023-03-14T08:55:29;6.10;;;3.50;;
67804;SDS011;54603;45.638;11.714;2023-03-14T08:57:55;4.10;;;3.10;;
67804;SDS011;54603;45.638;11.714;2023-03-14T09:00:20;4.20;;;3.10;;
67804;SDS011;54603;45.638;11.714;2023-03-14T09:02:46;6.70;;;3.70;;
67804;SDS011;54603;45.638;11.714;2023-03-14T09:05:12;4.30;;;3.40;;
67804;SDS011;54603;45.638;11.714;2023-03-14T09:07:38;4.80;;;3.50;;
67804;SDS011;54603;45.638;11.714;2023-03-14T09:10:05;4.80;;;3.40;;
67804;SDS011;54603;45.638;11.714;2023-03-14T09:12:31;4.70;;;3.10;;
67804;SDS011;54603;45.638;11.714;2023-03-14T09:14:57;6.30;;;3.40;;
67804;SDS011;54603;45.638;11.714;2023-03-14T09:17:23;7.20;;;3.40;;
67804;SDS011;54603;45.638;11.714;2023-03-14T09:19:48;8.90;;;3.00;;
67804;SDS011;54603;45.638;11.714;2023-03-14T09:22:14;5.50;;;3.30;;
67804;SDS011;54603;45.638;11.714;2023-03-14T09:24:40;4.90;;;3.30;;
67804;SDS011;54603;45.638;11.714;2023-03-14T09:27:06;7.00;;;3.20;;
67804;SDS011;54603;45.638;11.714;2023-03-14T09:29:32;4.70;;;3.00;;
67804;SDS011;54603;45.638;11.714;2023-03-14T09:31:58;4.80;;;3.00;;
67804;SDS011;54603;45.638;11.714;2023-03-14T09:34:24;4.00;;;2.80;;
67804;SDS011;54603;45.638;11.714;2023-03-14T09:36:50;3.50;;;2.90;;
67804;SDS011;54603;45.638;11.714;2023-03-14T09:39:15;5.30;;;3.30;;
67804;SDS011;54603;45.638;11.714;2023-03-14T09:41:46;4.10;;;3.10;;
67804;SDS011;54603;45.638;11.714;2023-03-14T09:44:14;4.60;;;3.30;;
67804;SDS011;54603;45.638;11.714;2023-03-14T09:46:44;3.90;;;3.00;;
67804;SDS011;54603;45.638;11.714;2023-03-14T09:49:31;3.50;;;2.70;;
67804;SDS011;54603;45.638;11.714;2023-03-14T09:52:04;5.40;;;3.20;;
67804;SDS011;54603;45.638;11.714;2023-03-14T09:54:37;7.00;;;3.00;;
67804;SDS011;54603;45.638;11.714;2023-03-14T09:57:05;3.60;;;3.00;;
67804;SDS011;54603;45.638;11.714;2023-03-14T09:59:34;5.20;;;3.30;;
67804;SDS011;54603;45.638;11.714;2023-03-14T10:02:01;5.90;;;3.30;;
67804;SDS011;54603;45.638;11.714;2023-03-14T10:04:27;3.50;;;2.90;;
67804;SDS011;54603;45.638;11.714;2023-03-14T10:06:55;4.50;;;2.90;;
67804;SDS011;54603;45.638;11.714;2023-03-14T10:09:21;5.10;;;3.00;;
67804;SDS011;54603;45.638;11.714;2023-03-14T10:11:54;6.00;;;3.20;;
67804;SDS011;54603;45.638;11.714;2023-03-14T10:14:34;5.00;;;3.00;;
67804;SDS011;54603;45.638;11.714;2023-03-14T10:17:05;4.40;;;3.20;;
67804;SDS011;54603;45.638;11.714;2023-03-14T10:19:35;5.40;;;3.10;;
67804;SDS011;54603;45.638;11.714;2023-03-14T10:22:02;4.40;;;3.10;;
67804;SDS011;54603;45.638;11.714;2023-03-14T10:24:33;4.80;;;3.00;;
67804;SDS011;54603;45.638;11.714;2023-03-14T10:27:01;5.20;;;3.30;;
67804;SDS011;54603;45.638;11.714;2023-03-14T10:29:31;8.00;;;3.30;;
67804;SDS011;54603;45.638;11.714;2023-03-14T10:31:59;7.20;;;3.30;;
67804;SDS011;54603;45.638;11.714;2023-03-14T10:34:33;4.40;;;3.30;;
67804;SDS011;54603;45.638;11.714;2023-03-14T10:37:07;5.80;;;3.70;;
67804;SDS011;54603;45.638;11.714;2023-03-14T10:45:01;5.20;;;3.10;;
67804;SDS011;54603;45.638;11.714;2023-03-14T10:47:29;4.70;;;3.10;;
67804;SDS011;54603;45.638;11.714;2023-03-14T10:49:57;5.30;;;3.20;;
67804;SDS011;54603;45.638;11.714;2023-03-14T10:52:47;4.90;;;3.40;;
67804;SDS011;54603;45.638;11.714;2023-03-14T10:55:14;4.40;;;3.30;;
67804;SDS011;54603;45.638;11.714;2023-03-14T10:57:40;6.90;;;3.60;;
67804;SDS011;54603;45.638;11.714;2023-03-14T11:00:24;7.60;;;3.60;;
67804;SDS011;54603;45.638;11.714;2023-03-14T11:03:12;7.10;;;3.60;;
67804;SDS011;54603;45.638;11.714;2023-03-14T11:05:40;6.50;;;3.70;;
67804;SDS011;54603;45.638;11.714;2023-03-14T11:10:51;7.30;;;3.50;;
67804;SDS011;54603;45.638;11.714;2023-03-14T11:13:27;4.50;;;3.60;;
67804;SDS011;54603;45.638;11.714;2023-03-14T11:16:34;5.90;;;3.70;;
67804;SDS011;54603;45.638;11.714;2023-03-14T11:19:22;6.40;;;3.80;;
67804;SDS011;54603;45.638;11.714;2023-03-14T11:24:32;4.90;;;3.60;;
67804;SDS011;54603;45.638;11.714;2023-03-14T11:29:45;6.80;;;3.80;;
67804;SDS011;54603;45.638;11.714;2023-03-14T11:35:28;8.60;;;3.80;;
67804;SDS011;54603;45.638;11.714;2023-03-14T11:38:10;6.00;;;3.80;;
67804;SDS011;54603;45.638;11.714;2023-03-14T11:40:36;8.60;;;3.90;;
67804;SDS011;54603;45.638;11.714;2023-03-14T11:43:12;6.50;;;3.60;;
67804;SDS011;54603;45.638;11.714;2023-03-14T11:45:41;10.90;;;3.70;;
67804;SDS011;54603;45.638;11.714;2023-03-14T11:48:25;5.50;;;3.60;;
67804;SDS011;54603;45.638;11.714;2023-03-14T11:50:57;8.00;;;3.50;;
67804;SDS011;54603;45.638;11.714;2023-03-14T11:53:45;5.80;;;3.20;;
67804;SDS011;54603;45.638;11.714;2023-03-14T11:56:22;5.20;;;3.40;;
67804;SDS011;54603;45.638;11.714;2023-03-14T11:58:55;7.30;;;3.80;;
67804;SDS011;54603;45.638;11.714;2023-03-14T12:01:26;5.40;;;3.50;;
67804;SDS011;54603;45.638;11.714;2023-03-14T12:04:09;8.40;;;3.50;;
67804;SDS011;54603;45.638;11.714;2023-03-14T12:06:47;5.60;;;3.50;;
67804;SDS011;54603;45.638;11.714;2023-03-14T12:09:14;9.00;;;3.10;;
67804;SDS011;54603;45.638;11.714;2023-03-14T12:11:52;6.40;;;3.20;;
67804;SDS011;54603;45.638;11.714;2023-03-14T12:14:27;7.00;;;3.20;;
67804;SDS011;54603;45.638;11.714;2023-03-14T12:17:37;5.90;;;3.30;;
67804;SDS011;54603;45.638;11.714;2023-03-14T12:19:47;5.30;;;3.00;;
67804;SDS011;54603;45.638;11.714;2023-03-14T12:22:27;6.30;;;3.60;;
67804;SDS011;54603;45.638;11.714;2023-03-14T12:24:55;5.90;;;3.20;;
67804;SDS011;54603;45.638;11.714;2023-03-14T12:30:24;6.20;;;2.90;;
67804;SDS011;54603;45.638;11.714;2023-03-14T12:35:53;6.20;;;3.10;;
67804;SDS011;54603;45.638;11.714;2023-03-14T12:39:08;6.30;;;2.80;;
67804;SDS011;54603;45.638;11.714;2023-03-14T12:43:51;6.50;;;3.00;;
67804;SDS011;54603;45.638;11.714;2023-03-14T12:49:03;7.00;;;3.00;;
67804;SDS011;54603;45.638;11.714;2023-03-14T12:51:36;4.20;;;2.80;;
67804;SDS011;54603;45.638;11.714;2023-03-14T12:54:21;7.60;;;3.10;;
67804;SDS011;54603;45.638;11.714;2023-03-14T12:59:31;4.50;;;3.00;;
67804;SDS011;54603;45.638;11.714;2023-03-14T13:07:10;5.20;;;2.60;;
67804;SDS011;54603;45.638;11.714;2023-03-14T13:09:55;4.30;;;2.40;;
67804;SDS011;54603;45.638;11.714;2023-03-14T13:12:27;4.20;;;2.30;;
67804;SDS011;54603;45.638;11.714;2023-03-14T13:14:57;5.90;;;2.50;;
67804;SDS011;54603;45.638;11.714;2023-03-14T13:17:33;4.60;;;2.40;;
67804;SDS011;54603;45.638;11.714;2023-03-14T13:20:03;7.80;;;2.80;;
67804;SDS011;54603;45.638;11.714;2023-03-14T13:22:47;5.50;;;2.50;;
67804;SDS011;54603;45.638;11.714;2023-03-14T13:25:14;4.20;;;2.20;;
67804;SDS011;54603;45.638;11.714;2023-03-14T13:27:41;4.70;;;2.30;;
67804;SDS011;54603;45.638;11.714;2023-03-14T13:30:15;3.30;;;2.10;;
67804;SDS011;54603;45.638;11.714;2023-03-14T13:32:41;5.10;;;2.30;;
67804;SDS011;54603;45.638;11.714;2023-03-14T13:35:16;4.00;;;2.40;;
67804;SDS011;54603;45.638;11.714;2023-03-14T13:37:42;5.00;;;2.30;;
67804;SDS011;54603;45.638;11.714;2023-03-14T13:40:17;3.90;;;2.30;;
67804;SDS011;54603;45.638;11.714;2023-03-14T13:42:44;7.20;;;2.40;;
67804;SDS011;54603;45.638;11.714;2023-03-14T13:45:12;5.60;;;2.60;;
67804;SDS011;54603;45.638;11.714;2023-03-14T13:47:38;4.70;;;2.60;;
67804;SDS011;54603;45.638;11.714;2023-03-14T13:50:04;4.40;;;2.40;;
67804;SDS011;54603;45.638;11.714;2023-03-14T13:52:34;5.50;;;2.40;;
67804;SDS011;54603;45.638;11.714;2023-03-14T13:55:01;5.80;;;2.30;;
67804;SDS011;54603;45.638;11.714;2023-03-14T13:57:42;4.00;;;2.60;;
67804;SDS011;54603;45.638;11.714;2023-03-14T14:00:18;5.20;;;2.70;;
67804;SDS011;54603;45.638;11.714;2023-03-14T14:02:52;3.80;;;2.30;;
67804;SDS011;54603;45.638;11.714;2023-03-14T14:05:19;4.50;;;2.60;;
67804;SDS011;54603;45.638;11.714;2023-03-14T14:07:45;5.90;;;2.60;;
67804;SDS011;54603;45.638;11.714;2023-03-14T14:10:12;5.10;;;2.30;;
67804;SDS011;54603;45.638;11.714;2023-03-14T14:12:48;2.80;;;2.20;;
67804;SDS011;54603;45.638;11.714;2023-03-14T14:15:37;7.00;;;2.50;;
67804;SDS011;54603;45.638;11.714;2023-03-14T14:18:12;4.70;;;2.60;;
67804;SDS011;54603;45.638;11.714;2023-03-14T14:20:41;4.10;;;2.20;;
67804;SDS011;54603;45.638;11.714;2023-03-14T14:23:27;5.00;;;2.00;;
67804;SDS011;54603;45.638;11.714;2023-03-14T14:25:56;5.10;;;2.40;;
67804;SDS011;54603;45.638;11.714;2023-03-14T14:28:32;4.00;;;2.50;;
67804;SDS011;54603;45.638;11.714;2023-03-14T14:31:00;3.40;;;2.50;;
67804;SDS011;54603;45.638;11.714;2023-03-14T14:34:01;4.60;;;2.20;;
67804;SDS011;54603;45.638;11.714;2023-03-14T14:36:40;5.40;;;2.40;;
67804;SDS011;54603;45.638;11.714;2023-03-14T14:39:11;4.70;;;2.30;;
67804;SDS011;54603;45.638;11.714;2023-03-14T14:41:42;5.60;;;2.20;;
67804;SDS011;54603;45.638;11.714;2023-03-14T14:44:11;4.50;;;2.20;;
67804;SDS011;54603;45.638;11.714;2023-03-14T14:46:38;3.60;;;2.30;;
67804;SDS011;54603;45.638;11.714;2023-03-14T14:49:10;3.90;;;2.10;;
67804;SDS011;54603;45.638;11.714;2023-03-14T14:51:42;4.20;;;2.20;;
67804;SDS011;54603;45.638;11.714;2023-03-14T14:54:11;4.60;;;2.20;;
67804;SDS011;54603;45.638;11.714;2023-03-14T14:56:38;4.20;;;2.40;;
67804;SDS011;54603;45.638;11.714;2023-03-14T14:59:04;4.20;;;2.10;;
67804;SDS011;54603;45.638;11.714;2023-03-14T15:01:41;5.40;;;2.30;;
67804;SDS011;54603;45.638;11.714;2023-03-14T15:04:11;3.70;;;2.30;;
67804;SDS011;54603;45.638;11.714;2023-03-14T15:06:38;4.40;;;2.00;;
67804;SDS011;54603;45.638;11.714;2023-03-14T15:09:05;3.20;;;2.30;;
67804;SDS011;54603;45.638;11.714;2023-03-14T15:11:30;3.20;;;2.10;;
67804;SDS011;54603;45.638;11.714;2023-03-14T15:13:56;2.60;;;2.00;;
67804;SDS011;54603;45.638;11.714;2023-03-14T15:16:22;4.50;;;2.20;;
67804;SDS011;54603;45.638;11.714;2023-03-14T15:18:54;2.80;;;2.00;;
67804;SDS011;54603;45.638;11.714;2023-03-14T15:21:21;2.60;;;1.70;;
67804;SDS011;54603;45.638;11.714;2023-03-14T15:23:47;2.60;;;2.20;;
67804;SDS011;54603;45.638;11.714;2023-03-14T15:26:14;4.00;;;2.30;;